Weather at Fort McKavett Airport [CLOSED]

Public forecast

Using degrees Fahrenheit for public forecast. Weather courtesy of forecast.io.

Closest aviation weather report (METAR) to Fort McKavett Airport

Closest report is Kimble County Airport, 27.3 nm (50.5 km) SE.

2023/01/26 21:51 (retrieved 15 minutes ago)

KJCT 262151Z AUTO 10006KT 10SM CLR 12/M06 A3033 RMK AO2 SLP262 T01171056

Closest aviation forecast (TAF) to Fort McKavett Airport

Closest forecast is Kimble County Airport, 27.3 nm (50.5 km) SE.

2023/01/26 18:24 (retrieved 4 hours ago)

TAF KJCT 261720Z 2618/2718 07005KT P6SM FEW250